createdAt,value
2017-11-15T00:00:12.138Z,89.09
2017-11-15T00:00:25.281Z,89.09
2017-11-15T00:00:38.412Z,88.9
2017-11-15T00:00:50.116Z,88.23
2017-11-15T00:01:02.759Z,88.42
2017-11-15T00:01:15.890Z,88.42
2017-11-15T00:01:28.587Z,88.71
2017-11-15T00:01:41.212Z,88.71
2017-11-15T00:01:54.357Z,88.71
2017-11-15T00:02:07.542Z,88.51
2017-11-15T00:02:19.712Z,88.71
2017-11-15T00:02:32.827Z,88.61
2017-11-15T00:02:45.526Z,88.71
2017-11-15T00:02:58.653Z,88.61
2017-11-15T00:03:11.765Z,88.51
2017-11-15T00:03:25.200Z,88.32
2017-11-15T00:03:38.341Z,88.9
2017-11-15T00:03:50.987Z,89.09
2017-11-15T00:04:03.618Z,88.42
2017-11-15T00:04:16.320Z,88.71
2017-11-15T00:04:29.481Z,88.51
2017-11-15T00:04:42.155Z,88.42
2017-11-15T00:04:55.240Z,88.81
2017-11-15T00:05:08.379Z,88.42
2017-11-15T00:05:20.989Z,88.42
2017-11-15T00:05:34.114Z,88.51
2017-11-15T00:05:47.266Z,88.32
2017-11-15T00:05:59.971Z,88.17
2017-11-15T00:06:13.151Z,88.32
2017-11-15T00:06:25.801Z,88.13
2017-11-15T00:06:38.472Z,88.23
2017-11-15T00:06:51.595Z,88.13
2017-11-15T00:07:04.740Z,88.37
2017-11-15T00:07:17.849Z,87.84
2017-11-15T00:07:30.477Z,88.23
2017-11-15T00:07:43.092Z,88.13
2017-11-15T00:07:56.233Z,88.23
2017-11-15T00:08:08.916Z,88.13
2017-11-15T00:08:21.568Z,87.94
2017-11-15T00:08:34.701Z,88.32
2017-11-15T00:08:47.885Z,87.94
2017-11-15T00:09:00.947Z,87.84
2017-11-15T00:09:14.041Z,88.08
2017-11-15T00:09:26.649Z,88.13
2017-11-15T00:09:39.784Z,88.27
2017-11-15T00:09:51.953Z,88.27
2017-11-15T00:10:04.601Z,87.94
2017-11-15T00:10:17.783Z,87.84
2017-11-15T00:10:30.947Z,88.13
2017-11-15T00:10:42.689Z,87.74
2017-11-15T00:10:55.279Z,87.94
2017-11-15T00:11:07.904Z,88.04
2017-11-15T00:11:21.047Z,87.74
2017-11-15T00:11:34.120Z,87.84
2017-11-15T00:11:47.278Z,87.94
2017-11-15T00:11:59.950Z,87.94
2017-11-15T00:12:13.145Z,87.6
2017-11-15T00:12:25.801Z,87.84
2017-11-15T00:12:38.940Z,88.04
2017-11-15T00:12:51.617Z,88.04
2017-11-15T00:13:04.758Z,88.23
2017-11-15T00:13:16.939Z,88.42
2017-11-15T00:13:29.836Z,88.13
2017-11-15T00:13:42.962Z,88.13
2017-11-15T00:13:55.600Z,88.04
2017-11-15T00:14:08.706Z,88.13
2017-11-15T00:14:21.814Z,87.94
2017-11-15T00:14:34.944Z,88.23
2017-11-15T00:14:48.030Z,87.84
2017-11-15T00:15:01.210Z,87.74
2017-11-15T00:15:13.815Z,87.94
2017-11-15T00:15:26.939Z,87.84
2017-11-15T00:15:39.519Z,87.55
2017-11-15T00:15:52.669Z,87.74
2017-11-15T00:16:05.761Z,87.84
2017-11-15T00:16:18.400Z,87.65
2017-11-15T00:16:31.561Z,87.94
2017-11-15T00:16:44.703Z,87.94
2017-11-15T00:16:57.754Z,88.23
2017-11-15T00:17:10.833Z,88.23
2017-11-15T00:17:23.985Z,88.32
2017-11-15T00:17:37.144Z,88.42
2017-11-15T00:17:49.801Z,87.94
2017-11-15T00:18:02.982Z,88.08
2017-11-15T00:18:15.676Z,88.17
2017-11-15T00:18:29.078Z,88.04
2017-11-15T00:18:41.713Z,88.23
2017-11-15T00:18:54.838Z,88.23
2017-11-15T00:19:07.972Z,88.61
2017-11-15T00:19:21.121Z,88.42
2017-11-15T00:19:34.188Z,88.51
2017-11-15T00:19:47.360Z,88.61
2017-11-15T00:20:00.465Z,88.61
2017-11-15T00:20:13.609Z,88.71
2017-11-15T00:20:26.758Z,88.9
2017-11-15T00:20:39.892Z,88.32
2017-11-15T00:20:51.610Z,88.42
2017-11-15T00:21:04.296Z,88.13
2017-11-15T00:21:17.440Z,87.74
2017-11-15T00:21:30.526Z,88.32
2017-11-15T00:21:43.357Z,87.74
2017-11-15T00:21:56.468Z,88.08
2017-11-15T00:22:09.058Z,87.94
2017-11-15T00:22:22.170Z,87.74
2017-11-15T00:22:33.874Z,88.04
2017-11-15T00:22:46.948Z,87.94
2017-11-15T00:23:00.036Z,88.42
2017-11-15T00:23:13.198Z,88.32
2017-11-15T00:23:26.310Z,88.23
2017-11-15T00:23:39.020Z,88.61
2017-11-15T00:23:52.093Z,88.61
2017-11-15T00:24:05.275Z,88.42
2017-11-15T00:24:17.457Z,88.51
2017-11-15T00:24:30.595Z,88.71
2017-11-15T00:24:43.684Z,88.61
2017-11-15T00:24:56.868Z,88.32
2017-11-15T00:25:10.016Z,88.32
2017-11-15T00:25:22.672Z,88.13
2017-11-15T00:25:35.295Z,88.13
2017-11-15T00:25:47.544Z,87.74
2017-11-15T00:26:00.686Z,88.04
2017-11-15T00:26:12.871Z,88.23
2017-11-15T00:26:26.000Z,88.23
2017-11-15T00:26:38.675Z,87.94
2017-11-15T00:26:51.332Z,88.23
2017-11-15T00:27:04.730Z,87.74
2017-11-15T00:27:17.408Z,87.94
2017-11-15T00:27:30.572Z,88.13
2017-11-15T00:27:42.695Z,88.13
2017-11-15T00:27:55.769Z,88.32
2017-11-15T00:28:08.931Z,88.32
2017-11-15T00:28:22.079Z,88.32
2017-11-15T00:28:35.230Z,88.51
2017-11-15T00:28:47.874Z,88.32
2017-11-15T00:29:00.999Z,88.13
2017-11-15T00:29:14.188Z,88.23
2017-11-15T00:29:26.810Z,88.13
2017-11-15T00:29:39.464Z,88.13
2017-11-15T00:29:51.196Z,87.94
2017-11-15T00:30:04.316Z,88.04
2017-11-15T00:30:16.989Z,88.04
2017-11-15T00:30:30.122Z,87.84
2017-11-15T00:30:42.253Z,87.55
2017-11-15T00:30:55.401Z,87.74
2017-11-15T00:31:08.044Z,87.65
2017-11-15T00:31:20.687Z,87.74
2017-11-15T00:31:33.804Z,87.84
2017-11-15T00:31:46.921Z,88.13
2017-11-15T00:31:59.604Z,87.94
2017-11-15T00:32:12.268Z,87.94
2017-11-15T00:32:25.404Z,88.13
2017-11-15T00:32:38.031Z,87.94
2017-11-15T00:32:50.708Z,87.94
2017-11-15T00:33:03.856Z,87.74
2017-11-15T00:33:16.977Z,87.74
2017-11-15T00:33:30.528Z,87.84
2017-11-15T00:33:43.687Z,87.74
2017-11-15T00:33:56.860Z,87.74
2017-11-15T00:34:10.005Z,87.74
2017-11-15T00:34:23.170Z,87.65
2017-11-15T00:34:35.803Z,87.65
2017-11-15T00:34:48.482Z,87.94
2017-11-15T00:35:01.519Z,87.74
2017-11-15T00:35:14.208Z,87.21
2017-11-15T00:35:27.381Z,87.36
2017-11-15T00:35:40.498Z,87.55
2017-11-15T00:35:53.156Z,87.46
2017-11-15T00:36:05.848Z,87.36
2017-11-15T00:36:18.987Z,87.17
2017-11-15T00:36:32.129Z,87.26
2017-11-15T00:36:45.224Z,87.55
2017-11-15T00:36:57.865Z,87.55
2017-11-15T00:37:11.024Z,87.36
2017-11-15T00:37:24.159Z,87.55
2017-11-15T00:37:37.279Z,87.55
2017-11-15T00:37:49.877Z,87.46
2017-11-15T00:38:03.030Z,87.17
2017-11-15T00:38:16.222Z,87.36
2017-11-15T00:38:29.316Z,87.36
2017-11-15T00:38:41.962Z,87.46
2017-11-15T00:38:53.691Z,87.26
2017-11-15T00:39:06.863Z,87.17
2017-11-15T00:39:19.990Z,87.55
2017-11-15T00:39:33.107Z,87.17
2017-11-15T00:39:46.283Z,87.26
2017-11-15T00:39:58.450Z,87.36
2017-11-15T00:40:11.114Z,87.46
2017-11-15T00:40:24.275Z,87.17
2017-11-15T00:40:37.368Z,87.17
2017-11-15T00:40:50.453Z,87.36
2017-11-15T00:41:03.580Z,87.55
2017-11-15T00:41:16.214Z,87.36
2017-11-15T00:41:29.345Z,87.36
2017-11-15T00:41:42.474Z,87.74
2017-11-15T00:41:55.603Z,87.65
2017-11-15T00:42:08.735Z,87.74
2017-11-15T00:42:21.847Z,87.84
2017-11-15T00:42:35.021Z,87.65
2017-11-15T00:42:47.709Z,87.84
2017-11-15T00:43:00.419Z,87.36
2017-11-15T00:43:12.662Z,87.46
2017-11-15T00:43:25.812Z,87.55
2017-11-15T00:43:39.234Z,87.36
2017-11-15T00:43:52.423Z,87.46
2017-11-15T00:44:05.557Z,87.55
2017-11-15T00:44:18.718Z,87.55
2017-11-15T00:44:31.835Z,87.46
2017-11-15T00:44:44.500Z,87.36
2017-11-15T00:44:57.609Z,87.26
2017-11-15T00:45:10.287Z,87.26
2017-11-15T00:45:22.905Z,86.69
2017-11-15T00:45:35.549Z,86.78
2017-11-15T00:45:47.751Z,86.69
2017-11-15T00:46:00.889Z,86.69
2017-11-15T00:46:13.528Z,86.88
2017-11-15T00:46:26.183Z,86.98
2017-11-15T00:46:39.393Z,86.88
2017-11-15T00:46:52.491Z,87.07
2017-11-15T00:47:05.100Z,86.69
2017-11-15T00:47:18.235Z,87.46
2017-11-15T00:47:30.505Z,87.17
2017-11-15T00:47:43.230Z,87.46
2017-11-15T00:47:55.860Z,87.17
2017-11-15T00:48:08.529Z,86.78
2017-11-15T00:48:21.659Z,87.26
2017-11-15T00:48:35.429Z,87.36
2017-11-15T00:48:48.544Z,87.26
2017-11-15T00:49:01.649Z,86.59
2017-11-15T00:49:14.281Z,86.98
2017-11-15T00:49:27.439Z,86.98
2017-11-15T00:49:40.493Z,87.07
2017-11-15T00:49:53.646Z,87.26
2017-11-15T00:50:06.793Z,87.17
2017-11-15T00:50:19.916Z,87.26
2017-11-15T00:50:33.056Z,87.36
2017-11-15T00:50:46.233Z,87.26
2017-11-15T00:50:59.387Z,87.36
2017-11-15T00:51:12.547Z,87.26
2017-11-15T00:51:25.743Z,86.69
2017-11-15T00:51:38.381Z,86.78
2017-11-15T00:51:51.550Z,86.88
2017-11-15T00:52:03.740Z,87.17
2017-11-15T00:52:15.955Z,86.98
2017-11-15T00:52:29.064Z,86.98
2017-11-15T00:52:41.714Z,86.98
2017-11-15T00:52:54.382Z,87.17
2017-11-15T00:53:07.047Z,87.07
2017-11-15T00:53:20.188Z,87.17
2017-11-15T00:53:33.296Z,86.78
2017-11-15T00:53:45.985Z,86.69
2017-11-15T00:53:59.107Z,86.88
2017-11-15T00:54:11.800Z,86.88
2017-11-15T00:54:24.952Z,86.98
2017-11-15T00:54:37.663Z,86.69
2017-11-15T00:54:50.768Z,86.49
2017-11-15T00:55:03.857Z,86.49
2017-11-15T00:55:17.017Z,86.4
2017-11-15T00:55:30.144Z,86.49
2017-11-15T00:55:43.256Z,86.49
2017-11-15T00:55:55.867Z,86.69
2017-11-15T00:56:08.030Z,86.88
2017-11-15T00:56:21.194Z,86.11
2017-11-15T00:56:34.327Z,86.11
2017-11-15T00:56:47.017Z,86.01
2017-11-15T00:57:00.140Z,85.91
2017-11-15T00:57:12.358Z,86.01
2017-11-15T00:57:25.492Z,86.11
2017-11-15T00:57:38.581Z,86.21
2017-11-15T00:57:51.208Z,86.21
2017-11-15T00:58:04.323Z,86.4
2017-11-15T00:58:16.925Z,86.69
2017-11-15T00:58:30.059Z,86.88
2017-11-15T00:58:43.201Z,86.01
2017-11-15T00:58:56.363Z,86.21
2017-11-15T00:59:08.533Z,86.3
2017-11-15T00:59:21.615Z,86.21
2017-11-15T00:59:34.735Z,86.21
2017-11-15T00:59:47.367Z,86.21
2017-11-15T01:00:00.026Z,86.21
2017-11-15T01:00:12.659Z,86.4
2017-11-15T01:00:25.844Z,86.69
2017-11-15T01:00:38.962Z,86.3
2017-11-15T01:00:52.081Z,86.21
2017-11-15T01:01:04.238Z,85.91
2017-11-15T01:01:16.970Z,86.01
2017-11-15T01:01:30.134Z,86.21
2017-11-15T01:01:42.786Z,86.4
2017-11-15T01:01:55.891Z,85.91
2017-11-15T01:02:15.349Z,86.21
2017-11-15T01:02:28.497Z,86.01
2017-11-15T01:02:41.150Z,86.11
2017-11-15T01:02:53.793Z,86.69
2017-11-15T01:03:06.917Z,86.88
2017-11-15T01:03:20.047Z,86.88
2017-11-15T01:03:32.693Z,86.49
2017-11-15T01:03:46.131Z,86.98
2017-11-15T01:03:59.206Z,86.98
2017-11-15T01:04:11.807Z,86.78
2017-11-15T01:04:24.934Z,86.78
2017-11-15T01:04:38.028Z,86.49
2017-11-15T01:04:51.140Z,86.49
2017-11-15T01:05:04.266Z,86.59
2017-11-15T01:05:16.479Z,86.49
2017-11-15T01:05:29.179Z,86.88
2017-11-15T01:05:41.807Z,86.49
2017-11-15T01:05:54.926Z,86.49
2017-11-15T01:06:07.071Z,86.59
2017-11-15T01:06:20.249Z,86.69
2017-11-15T01:06:32.955Z,86.69
2017-11-15T01:06:46.053Z,86.01
2017-11-15T01:06:58.734Z,86.01
2017-11-15T01:07:11.342Z,86.01
2017-11-15T01:07:24.454Z,85.82
2017-11-15T01:07:37.116Z,86.01
2017-11-15T01:07:50.230Z,86.11
2017-11-15T01:08:03.308Z,86.01
2017-11-15T01:08:16.008Z,86.01
2017-11-15T01:08:28.669Z,86.21
2017-11-15T01:08:41.343Z,86.65
2017-11-15T01:08:54.433Z,86.59
2017-11-15T01:09:07.097Z,86.55
2017-11-15T01:09:19.747Z,86.83
2017-11-15T01:09:32.877Z,86.21
2017-11-15T01:09:46.028Z,86.01
2017-11-15T01:09:59.143Z,86.11
2017-11-15T01:10:11.849Z,86.11
2017-11-15T01:10:24.991Z,86.11
2017-11-15T01:10:37.650Z,86.11
2017-11-15T01:10:50.241Z,86.21
2017-11-15T01:11:03.373Z,86.3
2017-11-15T01:11:16.484Z,86.3
2017-11-15T01:11:29.683Z,86.11
2017-11-15T01:11:41.849Z,86.16
2017-11-15T01:11:54.955Z,86.21
2017-11-15T01:12:08.044Z,86.4
2017-11-15T01:12:20.225Z,86.11
2017-11-15T01:12:33.374Z,86.07
2017-11-15T01:12:46.028Z,86.16
2017-11-15T01:12:58.647Z,85.97
2017-11-15T01:13:11.816Z,86.65
2017-11-15T01:13:24.467Z,86.45
2017-11-15T01:13:37.098Z,86.65
2017-11-15T01:13:50.486Z,86.83
2017-11-15T01:14:03.086Z,86.16
2017-11-15T01:14:15.259Z,86.21
2017-11-15T01:14:28.374Z,86.11
2017-11-15T01:14:41.006Z,86.16
2017-11-15T01:14:54.190Z,85.97
2017-11-15T01:15:06.814Z,86.16
2017-11-15T01:15:19.458Z,86.01
2017-11-15T01:15:32.120Z,86.3
2017-11-15T01:15:45.237Z,86.49
2017-11-15T01:15:57.856Z,86.01
2017-11-15T01:16:10.501Z,85.82
2017-11-15T01:16:23.632Z,86.01
2017-11-15T01:16:36.279Z,86.11
2017-11-15T01:16:48.941Z,86.21
2017-11-15T01:17:01.137Z,85.72
2017-11-15T01:17:13.386Z,85.43
2017-11-15T01:17:26.086Z,85.82
2017-11-15T01:17:39.225Z,85.63
2017-11-15T01:17:52.388Z,86.21
2017-11-15T01:18:05.534Z,86.3
2017-11-15T01:18:18.708Z,86.21
2017-11-15T01:18:31.806Z,86.4
2017-11-15T01:18:44.966Z,85.97
2017-11-15T01:18:58.913Z,85.78
2017-11-15T01:19:12.237Z,85.78
2017-11-15T01:19:25.360Z,85.78
2017-11-15T01:19:38.500Z,85.78
2017-11-15T01:19:51.654Z,85.78
2017-11-15T01:20:04.771Z,85.78
2017-11-15T01:20:17.940Z,85.68
2017-11-15T01:20:31.114Z,86.16
2017-11-15T01:20:44.300Z,86.16
2017-11-15T01:20:56.978Z,85.82
2017-11-15T01:21:10.129Z,86.01
2017-11-15T01:21:23.287Z,86.21
2017-11-15T01:21:36.441Z,86.21
2017-11-15T01:21:49.125Z,86.21
2017-11-15T01:22:02.264Z,85.63
2017-11-15T01:22:15.166Z,85.53
2017-11-15T01:22:27.876Z,85.82
2017-11-15T01:22:40.597Z,85.72
2017-11-15T01:22:53.392Z,85.72
2017-11-15T01:23:06.071Z,85.63
2017-11-15T01:23:18.704Z,85.72
2017-11-15T01:23:31.360Z,85.72
2017-11-15T01:23:44.516Z,85.72
2017-11-15T01:23:57.696Z,85.82
2017-11-15T01:24:10.823Z,85.63
2017-11-15T01:24:23.987Z,85.72
2017-11-15T01:24:36.649Z,85.72
2017-11-15T01:24:49.299Z,85.72
2017-11-15T01:25:02.440Z,85.24
2017-11-15T01:25:14.606Z,85.34
2017-11-15T01:25:27.837Z,85.34
2017-11-15T01:25:40.976Z,85.72
2017-11-15T01:25:54.085Z,85.72
2017-11-15T01:26:06.748Z,85.43
2017-11-15T01:26:19.890Z,85.72
2017-11-15T01:26:33.006Z,85.72
2017-11-15T01:26:45.625Z,85.72
2017-11-15T01:26:58.983Z,85.24
2017-11-15T01:27:12.097Z,85.34
2017-11-15T01:27:24.744Z,85.49
2017-11-15T01:27:37.863Z,85.39
2017-11-15T01:27:51.057Z,85.34
2017-11-15T01:28:04.148Z,85.34
2017-11-15T01:28:17.250Z,85.34
2017-11-15T01:28:30.343Z,85.34
2017-11-15T01:28:43.026Z,85.49
2017-11-15T01:28:56.216Z,85.68
2017-11-15T01:29:09.345Z,85.82
2017-11-15T01:29:21.998Z,85.68
2017-11-15T01:29:35.183Z,85.68
2017-11-15T01:29:47.821Z,85.68
2017-11-15T01:30:00.918Z,85.72
2017-11-15T01:30:14.079Z,85.68
2017-11-15T01:30:27.252Z,85.87
2017-11-15T01:30:39.868Z,85.78
2017-11-15T01:30:52.484Z,85.72
2017-11-15T01:31:05.623Z,85.72
2017-11-15T01:31:18.282Z,85.72
2017-11-15T01:31:31.387Z,85.58
2017-11-15T01:31:44.524Z,85.68
2017-11-15T01:31:57.657Z,85.68
2017-11-15T01:32:10.283Z,85.58
2017-11-15T01:32:23.391Z,85.68
2017-11-15T01:32:36.539Z,85.58
2017-11-15T01:32:48.636Z,85.78
2017-11-15T01:33:01.791Z,85.87
2017-11-15T01:33:14.915Z,85.68
2017-11-15T01:33:28.089Z,85.49
2017-11-15T01:33:40.742Z,86.07
2017-11-15T01:33:54.677Z,85.87
2017-11-15T01:34:07.813Z,85.78
2017-11-15T01:34:20.976Z,85.97
2017-11-15T01:34:34.100Z,85.68
2017-11-15T01:34:47.262Z,85.68
2017-11-15T01:35:00.404Z,85.68
2017-11-15T01:35:13.054Z,85.78
2017-11-15T01:35:26.107Z,85.97
2017-11-15T01:35:39.300Z,85.78
2017-11-15T01:35:51.927Z,86.74
2017-11-15T01:36:04.557Z,85.97
2017-11-15T01:36:16.765Z,85.97
2017-11-15T01:36:29.894Z,85.68
2017-11-15T01:36:42.112Z,85.97
2017-11-15T01:36:54.764Z,86.07
2017-11-15T01:37:07.822Z,86.07
2017-11-15T01:37:20.481Z,86.35
2017-11-15T01:37:33.608Z,86.35
2017-11-15T01:37:46.788Z,85.58
2017-11-15T01:37:59.940Z,86.16
2017-11-15T01:38:12.511Z,86.07
2017-11-15T01:38:25.663Z,85.97
2017-11-15T01:38:38.264Z,86.07
2017-11-15T01:38:51.389Z,86.74
2017-11-15T01:39:04.575Z,86.55
2017-11-15T01:39:17.610Z,86.26
2017-11-15T01:39:30.212Z,86.83
2017-11-15T01:39:43.374Z,86.55
2017-11-15T01:39:56.035Z,86.16
2017-11-15T01:40:09.188Z,86.45
2017-11-15T01:40:21.841Z,85.97
2017-11-15T01:40:34.971Z,85.97
2017-11-15T01:40:47.217Z,85.97
2017-11-15T01:41:00.340Z,86.07
2017-11-15T01:41:13.585Z,86.16
2017-11-15T01:41:26.763Z,86.16
2017-11-15T01:41:39.913Z,86.16
2017-11-15T01:41:52.690Z,85.97
2017-11-15T01:42:05.375Z,85.97
2017-11-15T01:42:18.122Z,85.97
2017-11-15T01:42:31.387Z,86.07
2017-11-15T01:42:44.510Z,85.97
2017-11-15T01:42:57.234Z,85.58
2017-11-15T01:43:09.907Z,85.58
2017-11-15T01:43:23.075Z,85.58
2017-11-15T01:43:36.258Z,85.78
2017-11-15T01:43:48.971Z,85.58
2017-11-15T01:44:01.970Z,85.58
2017-11-15T01:44:14.690Z,85.58
2017-11-15T01:44:27.454Z,86.16
2017-11-15T01:44:40.645Z,85.97
2017-11-15T01:44:53.764Z,86.26
2017-11-15T01:45:06.850Z,86.16
2017-11-15T01:45:19.987Z,86.07
2017-11-15T01:45:33.116Z,85.78
2017-11-15T01:45:45.840Z,85.87
2017-11-15T01:45:58.975Z,85.97
2017-11-15T01:46:11.640Z,85.97
2017-11-15T01:46:24.735Z,85.78
2017-11-15T01:46:37.914Z,85.97
2017-11-15T01:46:51.043Z,86.07
2017-11-15T01:47:03.694Z,85.78
2017-11-15T01:47:16.842Z,86.07
2017-11-15T01:47:30.013Z,86.16
2017-11-15T01:47:42.241Z,86.26
2017-11-15T01:47:55.380Z,85.97
2017-11-15T01:48:07.608Z,85.78
2017-11-15T01:48:20.228Z,85.78
2017-11-15T01:48:33.393Z,86.35
2017-11-15T01:48:46.120Z,86.16
2017-11-15T01:48:59.275Z,86.07
2017-11-15T01:49:13.081Z,85.97
2017-11-15T01:49:26.479Z,86.07
2017-11-15T01:49:39.604Z,85.97
2017-11-15T01:49:52.778Z,86.07
2017-11-15T01:50:05.485Z,85.97
2017-11-15T01:50:17.625Z,86.07
2017-11-15T01:50:30.738Z,85.78
2017-11-15T01:50:43.871Z,86.07
2017-11-15T01:50:57.047Z,85.97
2017-11-15T01:51:09.704Z,86.16
2017-11-15T01:51:22.835Z,85.58
2017-11-15T01:51:36.008Z,85.78
2017-11-15T01:51:48.682Z,85.49
2017-11-15T01:52:01.810Z,85.68
2017-11-15T01:52:14.478Z,85.58
2017-11-15T01:52:27.689Z,85.78
2017-11-15T01:52:40.335Z,85.68
2017-11-15T01:52:53.471Z,85.68
2017-11-15T01:53:05.682Z,85.3
2017-11-15T01:53:18.860Z,85.49
2017-11-15T01:53:31.990Z,85.1
2017-11-15T01:53:45.105Z,85.39
2017-11-15T01:53:58.307Z,85.1
2017-11-15T01:54:11.422Z,85.39
2017-11-15T01:54:24.556Z,85.58
2017-11-15T01:54:37.577Z,85.49
2017-11-15T01:54:50.704Z,85.2
2017-11-15T01:55:03.404Z,85.2
2017-11-15T01:55:16.049Z,85.3
2017-11-15T01:55:29.178Z,85
2017-11-15T01:55:41.854Z,85.49
2017-11-15T01:55:54.948Z,85.58
2017-11-15T01:56:07.624Z,85.2
2017-11-15T01:56:20.320Z,85.2
2017-11-15T01:56:33.543Z,85.2
2017-11-15T01:56:46.180Z,85.49
2017-11-15T01:56:58.809Z,85
2017-11-15T01:57:11.461Z,85
2017-11-15T01:57:24.699Z,85.1
2017-11-15T01:57:37.826Z,85.1
2017-11-15T01:57:51.007Z,85.2
2017-11-15T01:58:03.669Z,85.3
2017-11-15T01:58:16.848Z,85.1
2017-11-15T01:58:29.990Z,85.1
2017-11-15T01:58:43.086Z,85.2
2017-11-15T01:58:56.215Z,85.49
2017-11-15T01:59:09.294Z,85.49
2017-11-15T01:59:22.614Z,85.39
2017-11-15T01:59:35.272Z,85.49
2017-11-15T01:59:47.465Z,85
2017-11-15T02:00:00.075Z,85.3
2017-11-15T02:00:12.747Z,85.39
2017-11-15T02:00:25.414Z,85.87
2017-11-15T02:00:38.083Z,85.2
2017-11-15T02:00:51.205Z,85.78
2017-11-15T02:01:04.345Z,85.68
2017-11-15T02:01:17.499Z,85.68
2017-11-15T02:01:30.639Z,85.87
2017-11-15T02:01:43.755Z,85.68
2017-11-15T02:01:56.898Z,85.87
2017-11-15T02:02:10.023Z,85.2
2017-11-15T02:02:23.123Z,85.2
2017-11-15T02:02:35.755Z,85.49
2017-11-15T02:02:47.959Z,85.3
2017-11-15T02:03:01.141Z,85
2017-11-15T02:03:14.330Z,85.2
2017-11-15T02:03:27.410Z,85.3
2017-11-15T02:03:40.523Z,85.2
2017-11-15T02:03:53.697Z,85.3
2017-11-15T02:04:06.889Z,85.49
2017-11-15T02:04:20.349Z,85.2
2017-11-15T02:04:32.948Z,85.2
2017-11-15T02:04:46.128Z,85.58
2017-11-15T02:04:59.275Z,85.58
2017-11-15T02:05:12.418Z,85.68
2017-11-15T02:05:25.090Z,85.64
2017-11-15T02:05:38.268Z,85.78
2017-11-15T02:05:51.392Z,85.68
2017-11-15T02:06:04.557Z,85.58
2017-11-15T02:06:17.674Z,85.39
2017-11-15T02:06:30.779Z,85
2017-11-15T02:06:43.381Z,85.2
2017-11-15T02:06:56.523Z,85
2017-11-15T02:07:09.625Z,85.3
2017-11-15T02:07:22.740Z,85.49
2017-11-15T02:07:35.916Z,85.2
2017-11-15T02:07:49.093Z,85.1
2017-11-15T02:08:02.287Z,85.2
2017-11-15T02:08:14.442Z,85.2
2017-11-15T02:08:27.535Z,85.39
2017-11-15T02:08:40.203Z,85.3
2017-11-15T02:08:53.383Z,85.83
2017-11-15T02:09:06.477Z,85.78
2017-11-15T02:09:19.113Z,85.39
2017-11-15T02:09:32.198Z,85.3
2017-11-15T02:09:45.290Z,85
2017-11-15T02:09:57.953Z,85.39
2017-11-15T02:10:09.675Z,85.16
2017-11-15T02:10:22.828Z,85.58
2017-11-15T02:10:35.912Z,85.68
2017-11-15T02:10:49.044Z,85.58
2017-11-15T02:11:02.159Z,85.68
2017-11-15T02:11:14.323Z,85.44
2017-11-15T02:11:27.427Z,85.68
2017-11-15T02:11:40.102Z,85.68
2017-11-15T02:11:52.814Z,85.68
2017-11-15T02:12:05.930Z,85.68
2017-11-15T02:12:18.604Z,85.68
2017-11-15T02:12:31.202Z,85.78
2017-11-15T02:12:44.316Z,85.68
2017-11-15T02:12:57.490Z,85.68
2017-11-15T02:13:10.547Z,85.68
2017-11-15T02:13:23.210Z,85.49
2017-11-15T02:13:36.420Z,85.3
2017-11-15T02:13:49.030Z,85.39
2017-11-15T02:14:02.153Z,85.58
2017-11-15T02:14:15.515Z,85
2017-11-15T02:14:28.648Z,85.2
2017-11-15T02:14:41.357Z,85
2017-11-15T02:14:54.556Z,85.2
2017-11-15T02:15:07.717Z,85.3
2017-11-15T02:15:20.363Z,85.2
2017-11-15T02:15:33.727Z,85.39
2017-11-15T02:15:46.853Z,85.2
2017-11-15T02:16:00.049Z,85.1
2017-11-15T02:16:13.203Z,85.1
2017-11-15T02:16:26.368Z,85.49
2017-11-15T02:16:39.379Z,85.39
2017-11-15T02:16:52.525Z,85.3
2017-11-15T02:17:05.848Z,85.1
2017-11-15T02:17:19.001Z,85.2
2017-11-15T02:17:31.635Z,85.2
2017-11-15T02:17:44.732Z,85.1
2017-11-15T02:17:57.830Z,85.2
2017-11-15T02:18:10.034Z,85.1
2017-11-15T02:18:22.739Z,85.3
2017-11-15T02:18:35.853Z,84.97
2017-11-15T02:18:49.019Z,85.1
2017-11-15T02:19:01.700Z,85
2017-11-15T02:19:14.050Z,85.1
2017-11-15T02:19:27.892Z,85.39
2017-11-15T02:19:40.550Z,85.58
2017-11-15T02:19:53.700Z,85.39
2017-11-15T02:20:05.399Z,85.3
2017-11-15T02:20:18.051Z,85.49
2017-11-15T02:20:31.172Z,85.49
2017-11-15T02:20:44.376Z,85.3
2017-11-15T02:20:57.439Z,85.1
2017-11-15T02:21:10.531Z,85
2017-11-15T02:21:23.212Z,85.1
2017-11-15T02:21:35.871Z,85.49
2017-11-15T02:21:48.931Z,85.2
2017-11-15T02:22:02.125Z,85.49
2017-11-15T02:22:15.276Z,85.3
2017-11-15T02:22:27.951Z,85.16
2017-11-15T02:22:40.577Z,85
2017-11-15T02:22:53.641Z,85.1
2017-11-15T02:23:06.754Z,85.83
2017-11-15T02:23:19.951Z,85.54
2017-11-15T02:23:33.051Z,85.35
2017-11-15T02:23:46.200Z,85.78
2017-11-15T02:23:59.421Z,85.87
2017-11-15T02:24:12.621Z,85.44
2017-11-15T02:24:25.792Z,85.68
2017-11-15T02:24:38.921Z,85.49
2017-11-15T02:24:52.018Z,85.78
2017-11-15T02:25:05.175Z,85.68
2017-11-15T02:25:17.820Z,85.64
2017-11-15T02:25:30.471Z,85.64
2017-11-15T02:25:43.618Z,85.58
2017-11-15T02:25:56.301Z,85.2
2017-11-15T02:26:09.423Z,85.3
2017-11-15T02:26:22.551Z,85.3
2017-11-15T02:26:34.718Z,85.58
2017-11-15T02:26:47.832Z,85.2
2017-11-15T02:27:00.914Z,85.68
2017-11-15T02:27:13.535Z,85.78
2017-11-15T02:27:26.663Z,85.58
2017-11-15T02:27:39.350Z,85.58
2017-11-15T02:27:52.480Z,85.49
2017-11-15T02:28:05.591Z,85.58
2017-11-15T02:28:18.675Z,85.68
2017-11-15T02:28:31.794Z,85.58
2017-11-15T02:28:44.438Z,85.64
2017-11-15T02:28:57.606Z,86.26
2017-11-15T02:29:10.732Z,85.78
2017-11-15T02:29:23.837Z,86.07
2017-11-15T02:29:36.478Z,85.58
2017-11-15T02:29:49.610Z,85.58
2017-11-15T02:30:02.858Z,85.64
2017-11-15T02:30:16.048Z,85.58
2017-11-15T02:30:29.197Z,86.12
2017-11-15T02:30:41.883Z,85.74
2017-11-15T02:30:54.552Z,85.83
2017-11-15T02:31:06.775Z,86.02
2017-11-15T02:31:19.923Z,86.02
2017-11-15T02:31:33.047Z,86.12
2017-11-15T02:31:46.165Z,86.07
2017-11-15T02:31:59.331Z,85.83
2017-11-15T02:32:12.026Z,85.74
2017-11-15T02:32:25.163Z,85.83
2017-11-15T02:32:38.251Z,85.74
2017-11-15T02:32:51.457Z,85.93
2017-11-15T02:33:04.198Z,85.83
2017-11-15T02:33:17.409Z,86.51
2017-11-15T02:33:30.555Z,85.93
2017-11-15T02:33:43.187Z,85.93
2017-11-15T02:33:56.340Z,85.74
2017-11-15T02:34:08.998Z,85.83
2017-11-15T02:34:22.402Z,85.87
2017-11-15T02:34:35.068Z,85.68
2017-11-15T02:34:48.277Z,85.93
2017-11-15T02:35:01.411Z,85.74
2017-11-15T02:35:14.538Z,85.93
2017-11-15T02:35:27.660Z,85.93
2017-11-15T02:35:40.815Z,85.64
2017-11-15T02:35:53.506Z,85.74
2017-11-15T02:36:06.135Z,85.83
2017-11-15T02:36:18.805Z,86.6
2017-11-15T02:36:31.984Z,85.74
2017-11-15T02:36:45.073Z,85.68
2017-11-15T02:36:57.706Z,86.02
2017-11-15T02:37:10.380Z,85.93
2017-11-15T02:37:23.004Z,85.74
2017-11-15T02:37:36.187Z,86.07
2017-11-15T02:37:48.836Z,85.97
2017-11-15T02:38:01.960Z,85.78
2017-11-15T02:38:14.157Z,85.74
2017-11-15T02:38:27.295Z,86.02
2017-11-15T02:38:40.437Z,86.02
2017-11-15T02:38:53.584Z,86.16
2017-11-15T02:39:06.793Z,85.97
2017-11-15T02:39:19.428Z,85.58
2017-11-15T02:39:32.022Z,85.58
2017-11-15T02:39:44.169Z,85.68
2017-11-15T02:39:57.297Z,85.54
2017-11-15T02:40:09.436Z,85.64
2017-11-15T02:40:22.575Z,85.54
2017-11-15T02:40:35.736Z,85.58
2017-11-15T02:40:48.362Z,85.74
2017-11-15T02:41:01.475Z,85.78
2017-11-15T02:41:14.576Z,85.58
2017-11-15T02:41:27.690Z,85.58
2017-11-15T02:41:40.772Z,85.68
2017-11-15T02:41:53.980Z,86.12
2017-11-15T02:42:07.107Z,85.64
2017-11-15T02:42:20.308Z,85.58
2017-11-15T02:42:33.435Z,85.58
2017-11-15T02:42:46.543Z,85.58
2017-11-15T02:42:59.677Z,85.49
2017-11-15T02:43:12.851Z,85.54
2017-11-15T02:43:25.497Z,85.44
2017-11-15T02:43:38.573Z,85.54
2017-11-15T02:43:51.202Z,85.44
2017-11-15T02:44:03.850Z,85.74
2017-11-15T02:44:16.559Z,86.02
2017-11-15T02:44:29.906Z,85.93
2017-11-15T02:44:42.548Z,85.93
2017-11-15T02:44:55.204Z,86.12
2017-11-15T02:45:08.322Z,85.83
2017-11-15T02:45:21.458Z,86.12
2017-11-15T02:45:34.553Z,86.12
2017-11-15T02:45:47.662Z,86.12
2017-11-15T02:46:00.824Z,86.02
2017-11-15T02:46:13.519Z,85.83
2017-11-15T02:46:26.740Z,86.12
2017-11-15T02:46:39.919Z,86.12
2017-11-15T02:46:53.071Z,86.12
2017-11-15T02:47:05.756Z,86.12
2017-11-15T02:47:18.455Z,85.83
2017-11-15T02:47:31.593Z,85.83